Time;durP1;ratioP1;P1;durP2;ratioP2;P2;SDS_P1;SDS_P2;PMS_P1;PMS_P2;Temp;Humidity;BMP_temperature;BMP_pressure;BME280_temperature;BME280_humidity;BME280_pressure;Samples;Min_cycle;Max_cycle;Signal;HPM_P1;HPM_P2
2022/06/20 00:00:25;;;;;;;3.58;0.80;;;13.80;99.90;;;;;;4990711;28;20039;-81
2022/06/20 00:02:58;;;;;;;5.40;1.00;;;13.80;99.90;;;;;;4990592;28;20023;-80
2022/06/20 00:05:27;;;;;;;2.65;0.68;;;13.90;99.90;;;;;;4992230;28;20034;-80
2022/06/20 00:07:53;;;;;;;3.40;0.85;;;13.90;99.90;;;;;;4991667;28;20025;-81
2022/06/20 00:10:21;;;;;;;2.15;0.82;;;14.00;99.90;;;;;;4991524;28;20437;-81
2022/06/20 00:12:48;;;;;;;2.28;1.00;;;14.00;99.90;;;;;;4992216;28;20018;-80
2022/06/20 00:15:26;;;;;;;2.90;1.10;;;14.00;99.90;;;;;;4990983;28;20053;-81
2022/06/20 00:17:52;;;;;;;2.75;1.10;;;14.00;99.90;;;;;;4991455;28;20023;-81
2022/06/20 00:20:18;;;;;;;1.95;0.98;;;14.10;99.90;;;;;;4991769;28;20046;-80
2022/06/20 00:22:44;;;;;;;2.70;0.80;;;14.10;99.90;;;;;;4991950;28;20109;-80
2022/06/20 00:25:10;;;;;;;4.45;0.88;;;14.10;99.90;;;;;;4991174;28;20444;-80
2022/06/20 00:27:37;;;;;;;2.00;0.80;;;14.10;99.90;;;;;;4991487;28;20543;-80
2022/06/20 00:30:04;;;;;;;2.67;0.68;;;14.10;99.90;;;;;;4991610;28;20021;-81
2022/06/20 00:32:30;;;;;;;3.67;1.05;;;14.00;99.90;;;;;;4991188;28;20386;-80
2022/06/20 00:34:56;;;;;;;2.25;0.90;;;14.10;99.90;;;;;;4990830;28;20035;-80
2022/06/20 00:37:21;;;;;;;2.15;0.60;;;14.00;99.90;;;;;;4991367;28;20426;-79
2022/06/20 00:39:49;;;;;;;2.40;0.80;;;14.00;99.90;;;;;;4991353;28;20041;-80
2022/06/20 00:42:16;;;;;;;4.97;0.90;;;13.90;99.90;;;;;;4991731;28;20051;-80
2022/06/20 00:44:46;;;;;;;3.55;1.13;;;13.80;99.90;;;;;;4991414;28;20029;-80
2022/06/20 00:47:22;;;;;;;3.40;0.80;;;13.70;99.90;;;;;;5014442;23;20192;-78
2022/06/20 00:50:02;;;;;;;2.78;1.20;;;13.60;99.90;;;;;;5030552;28;20481;-76
2022/06/20 00:52:48;;;;;;;2.65;1.40;;;13.50;99.90;;;;;;5030711;28;20057;-76
2022/06/20 00:55:13;;;;;;;5.57;1.05;;;13.40;99.90;;;;;;5029714;28;20036;-77
2022/06/20 00:58:01;;;;;;;1.88;0.90;;;13.40;99.90;;;;;;5010651;28;20026;-76
2022/06/20 01:00:31;;;;;;;3.15;0.93;;;13.30;99.90;;;;;;5010369;28;20049;-77
2022/06/20 01:03:11;;;;;;;3.75;0.73;;;13.20;99.90;;;;;;5009766;28;20022;-76
2022/06/20 01:05:41;;;;;;;3.55;1.10;;;13.10;99.90;;;;;;5009861;28;20022;-76
2022/06/20 01:08:18;;;;;;;2.80;1.13;;;13.10;99.90;;;;;;5010748;28;20026;-76
2022/06/20 01:10:48;;;;;;;2.78;1.02;;;13.00;99.90;;;;;;5006768;28;20057;-76
2022/06/20 01:13:17;;;;;;;1.92;0.93;;;13.00;99.90;;;;;;5014596;28;20032;-76
2022/06/20 01:15:45;;;;;;;3.83;1.30;;;12.90;99.90;;;;;;4995545;28;20060;-76
2022/06/20 01:18:19;;;;;;;8.18;1.23;;;12.90;99.90;;;;;;5012478;28;20374;-76
2022/06/20 01:20:46;;;;;;;5.13;0.90;;;12.80;99.90;;;;;;5014451;28;20533;-76
2022/06/20 01:23:44;;;;;;;1.77;0.98;;;12.80;99.90;;;;;;5014302;28;20018;-76
2022/06/20 01:26:31;;;;;;;3.92;0.90;;;12.70;99.90;;;;;;5006814;28;20029;-76
2022/06/20 01:29:03;;;;;;;5.30;1.10;;;12.60;99.90;;;;;;5007827;28;20033;-76
2022/06/20 01:31:39;;;;;;;2.20;0.80;;;12.60;99.90;;;;;;5014207;28;20053;-77
2022/06/20 01:34:06;;;;;;;2.78;0.95;;;12.60;99.90;;;;;;5014027;28;20053;-76
2022/06/20 01:39:22;;;;;;;5.00;1.52;;;12.40;99.90;;;;;;5014482;28;20020;-77
2022/06/20 01:44:38;;;;;;;5.28;1.73;;;12.30;99.90;;;;;;5009398;28;20068;-77
2022/06/20 01:47:04;;;;;;;4.85;1.50;;;12.20;99.90;;;;;;5023323;22;20073;-79
2022/06/20 01:49:32;;;;;;;1.52;0.77;;;12.20;99.90;;;;;;4997112;28;20149;-79
2022/06/20 01:52:33;;;;;;;5.78;1.23;;;12.10;99.90;;;;;;4994216;28;20383;-78
2022/06/20 01:55:12;;;;;;;4.53;1.08;;;12.20;99.90;;;;;;4978772;28;20026;-80
2022/06/20 01:57:42;;;;;;;3.83;1.02;;;12.20;99.90;;;;;;4994304;28;20022;-79
2022/06/20 02:00:18;;;;;;;3.53;1.38;;;12.10;99.90;;;;;;4994405;28;20041;-79
2022/06/20 02:03:07;;;;;;;5.07;1.23;;;12.10;99.90;;;;;;4994115;28;20547;-79
2022/06/20 02:05:33;;;;;;;2.58;1.00;;;12.10;99.90;;;;;;4972834;28;20054;-78
2022/06/20 02:08:06;;;;;;;2.47;1.13;;;12.20;99.90;;;;;;4994131;28;20010;-78
2022/06/20 02:10:48;;;;;;;1.92;1.35;;;12.30;99.90;;;;;;4994017;28;20105;-79
2022/06/20 02:13:16;;;;;;;4.20;1.10;;;12.40;99.90;;;;;;4994152;28;20101;-79
2022/06/20 02:15:44;;;;;;;5.40;1.20;;;12.50;99.90;;;;;;4993832;28;20042;-78
2022/06/20 02:18:11;;;;;;;4.05;1.33;;;12.60;99.90;;;;;;4994349;28;20022;-80
2022/06/20 02:20:51;;;;;;;3.40;1.35;;;12.60;99.90;;;;;;4995047;28;20049;-79
2022/06/20 02:23:20;;;;;;;1.77;1.20;;;12.70;99.90;;;;;;4993391;28;20015;-79
2022/06/20 02:25:49;;;;;;;3.22;1.45;;;12.80;99.90;;;;;;4993661;28;20109;-80
2022/06/20 02:28:24;;;;;;;4.32;1.40;;;12.80;99.90;;;;;;4976332;28;20018;-80
2022/06/20 02:33:23;;;;;;;6.22;1.55;;;12.80;99.90;;;;;;4993248;28;20026;-79
2022/06/20 02:35:49;;;;;;;4.35;1.23;;;12.80;99.90;;;;;;4975009;28;20101;-79
2022/06/20 02:38:16;;;;;;;4.50;1.20;;;12.80;99.90;;;;;;4993538;28;20014;-79
2022/06/20 02:40:42;;;;;;;4.55;1.35;;;12.80;99.90;;;;;;4993798;28;20061;-79
2022/06/20 02:43:12;;;;;;;4.57;1.38;;;12.80;99.90;;;;;;4992919;28;20498;-79
2022/06/20 02:45:40;;;;;;;3.25;1.15;;;12.80;99.90;;;;;;4993343;28;20026;-79
2022/06/20 02:48:08;;;;;;;0.80;0.80;;;12.80;99.90;;;;;;5003447;23;20411;-76
2022/06/20 02:50:42;;;;;;;5.18;1.35;;;12.80;99.90;;;;;;4974713;28;20518;-76
2022/06/20 02:53:32;;;;;;;1.92;1.25;;;12.70;99.90;;;;;;4974646;28;20046;-76
2022/06/20 02:55:58;;;;;;;4.60;1.40;;;12.80;99.90;;;;;;4974154;28;20093;-76
2022/06/20 02:58:29;;;;;;;3.45;1.05;;;12.70;99.90;;;;;;4974536;28;20027;-76
2022/06/20 03:01:01;;;;;;;5.35;1.30;;;12.70;99.90;;;;;;4974530;28;20471;-76
2022/06/20 03:03:40;;;;;;;3.10;1.20;;;12.60;99.90;;;;;;4974120;28;20039;-76
2022/06/20 03:06:12;;;;;;;3.75;1.27;;;12.60;99.90;;;;;;4973683;28;20023;-76
2022/06/20 03:08:38;;;;;;;5.55;1.38;;;12.60;99.90;;;;;;4974277;28;20030;-76
2022/06/20 03:11:05;;;;;;;3.75;1.13;;;12.60;99.90;;;;;;4974359;28;20031;-76
2022/06/20 03:13:33;;;;;;;3.55;0.88;;;12.60;99.90;;;;;;4973844;28;20535;-76
2022/06/20 03:16:01;;;;;;;6.93;1.38;;;12.60;99.90;;;;;;4974182;28;20037;-76
2022/06/20 03:18:27;;;;;;;2.97;1.13;;;12.60;99.90;;;;;;4973787;28;20112;-76
2022/06/20 03:20:54;;;;;;;4.22;1.55;;;12.60;99.90;;;;;;4974085;28;20035;-76
2022/06/20 03:23:24;;;;;;;3.97;1.70;;;12.60;99.90;;;;;;4973978;28;20014;-75
2022/06/20 03:25:50;;;;;;;9.45;1.80;;;12.60;99.90;;;;;;4973907;28;20027;-75
2022/06/20 03:28:19;;;;;;;3.60;1.40;;;12.60;99.90;;;;;;4974174;28;20011;-76
2022/06/20 03:30:46;;;;;;;4.32;1.52;;;12.50;99.90;;;;;;4974048;28;20019;-76
2022/06/20 03:33:16;;;;;;;3.75;0.80;;;12.40;99.90;;;;;;4972624;28;20511;-76
2022/06/20 03:35:51;;;;;;;3.30;1.00;;;12.40;99.90;;;;;;4973531;28;20503;-76
2022/06/20 03:38:18;;;;;;;3.25;1.10;;;12.40;99.90;;;;;;4973349;28;20472;-76
2022/06/20 03:40:44;;;;;;;6.25;1.15;;;12.40;99.90;;;;;;4973426;28;20086;-77
2022/06/20 03:43:13;;;;;;;3.90;1.13;;;12.40;99.90;;;;;;4973611;28;20031;-77
2022/06/20 03:45:44;;;;;;;3.40;1.38;;;12.40;99.90;;;;;;4973315;28;20080;-76
2022/06/20 03:48:16;;;;;;;2.85;1.08;;;12.40;99.90;;;;;;5001397;23;20116;-79
2022/06/20 03:51:06;;;;;;;5.05;0.98;;;12.40;99.90;;;;;;4985721;28;20471;-79
2022/06/20 03:53:44;;;;;;;4.65;1.02;;;12.40;99.90;;;;;;4986893;28;20026;-79
2022/06/20 03:56:18;;;;;;;3.45;0.90;;;12.40;99.90;;;;;;4974811;28;20030;-78
2022/06/20 03:58:56;;;;;;;5.30;2.53;;;12.40;99.90;;;;;;4974728;28;20018;-79
2022/06/20 04:01:29;;;;;;;4.32;1.13;;;12.40;99.90;;;;;;4991993;28;20542;-79
2022/06/20 04:04:28;;;;;;;1.48;0.80;;;12.40;99.90;;;;;;4991977;28;20018;-79
2022/06/20 04:07:28;;;;;;;4.82;1.30;;;12.40;99.90;;;;;;4983061;28;20097;-79
2022/06/20 04:13:03;;;;;;;3.67;1.08;;;12.40;99.90;;;;;;4987633;28;20037;-79
2022/06/20 04:15:44;;;;;;;5.47;0.80;;;12.40;99.90;;;;;;4973954;28;20034;-79
2022/06/20 04:18:28;;;;;;;5.22;1.48;;;12.40;99.90;;;;;;4988362;28;20029;-80
2022/06/20 04:21:18;;;;;;;1.85;1.38;;;12.40;99.90;;;;;;4991759;28;20051;-79
2022/06/20 04:24:05;;;;;;;1.42;1.05;;;12.30;99.90;;;;;;4991410;28;20030;-79
2022/06/20 04:26:40;;;;;;;3.25;1.05;;;12.40;99.90;;;;;;4974140;28;20022;-79
2022/06/20 04:29:20;;;;;;;5.93;1.10;;;12.30;99.90;;;;;;4992003;28;20022;-79
2022/06/20 04:31:51;;;;;;;5.47;1.30;;;12.30;99.90;;;;;;4991847;28;20061;-79
2022/06/20 04:34:24;;;;;;;6.55;1.17;;;12.30;99.90;;;;;;4991446;28;20124;-79
2022/06/20 04:37:00;;;;;;;8.23;1.50;;;12.20;99.90;;;;;;4991208;28;20129;-79
2022/06/20 04:39:39;;;;;;;3.70;1.17;;;12.20;99.90;;;;;;4991879;28;20033;-79
2022/06/20 04:42:11;;;;;;;2.25;0.82;;;12.20;99.90;;;;;;4991335;28;20058;-79
2022/06/20 04:44:38;;;;;;;;;;;12.20;99.90;;;;;;4991930;28;20046;-79
2022/06/20 04:47:30;;;;;;;4.00;1.25;;;12.20;99.90;;;;;;5009401;22;19914;-76
2022/06/20 04:49:56;;;;;;;9.93;1.40;;;12.20;99.90;;;;;;4985808;28;20042;-77
2022/06/20 04:52:25;;;;;;;3.58;1.45;;;12.20;99.90;;;;;;4991913;28;20022;-76
2022/06/20 04:54:51;;;;;;;3.40;1.30;;;12.30;99.90;;;;;;4974628;28;20038;-77
2022/06/20 04:57:17;;;;;;;3.95;1.10;;;12.30;99.90;;;;;;4991892;28;20049;-77
2022/06/20 04:59:43;;;;;;;1.98;0.98;;;12.30;99.90;;;;;;4991910;28;20027;-77
2022/06/20 05:02:19;;;;;;;3.47;0.85;;;12.40;99.90;;;;;;4991604;28;20105;-76
2022/06/20 05:04:47;;;;;;;5.82;1.05;;;12.50;99.90;;;;;;4992195;28;20018;-76
2022/06/20 05:07:24;;;;;;;5.90;1.67;;;12.50;99.90;;;;;;4991134;28;20050;-77
2022/06/20 05:10:07;;;;;;;2.47;1.15;;;12.50;99.90;;;;;;4985872;28;20046;-76
2022/06/20 05:12:55;;;;;;;5.90;1.08;;;12.60;99.90;;;;;;4985685;28;20038;-76
2022/06/20 05:15:20;;;;;;;4.43;0.93;;;12.70;99.90;;;;;;4985774;28;20065;-76
2022/06/20 05:17:48;;;;;;;5.10;1.20;;;12.70;99.90;;;;;;4991646;28;20022;-77
2022/06/20 05:20:23;;;;;;;4.32;1.20;;;12.80;99.90;;;;;;4991684;28;20018;-76
2022/06/20 05:23:01;;;;;;;4.47;1.67;;;12.90;99.90;;;;;;4991743;28;20033;-77
2022/06/20 05:25:29;;;;;;;5.93;1.90;;;12.90;99.90;;;;;;4991899;28;20025;-76
2022/06/20 05:28:00;;;;;;;2.97;1.20;;;12.90;99.90;;;;;;4998388;28;20022;-76
2022/06/20 05:30:29;;;;;;;3.78;0.82;;;12.90;99.90;;;;;;4991998;28;20609;-76
2022/06/20 05:33:19;;;;;;;2.58;1.42;;;12.90;99.90;;;;;;4991509;28;20022;-77
2022/06/20 05:35:51;;;;;;;4.22;1.25;;;12.90;99.90;;;;;;4991235;28;20042;-76
2022/06/20 05:38:44;;;;;;;2.28;1.00;;;13.00;99.90;;;;;;4991281;28;20048;-77
2022/06/20 05:41:13;;;;;;;4.20;1.30;;;13.10;99.90;;;;;;4991614;28;20584;-77
2022/06/20 05:43:40;;;;;;;3.50;1.33;;;13.10;99.90;;;;;;4991467;28;20031;-77
2022/06/20 05:46:13;;;;;;;6.40;1.00;;;13.10;99.90;;;;;;4991598;28;20049;-77
2022/06/20 05:48:46;;;;;;;3.17;1.10;;;13.10;99.90;;;;;;4995785;23;20047;-80
2022/06/20 05:51:16;;;;;;;1.25;0.90;;;13.10;99.90;;;;;;4970437;28;20022;-79
2022/06/20 05:54:01;;;;;;;4.30;1.30;;;13.20;99.90;;;;;;4971147;28;20472;-80
2022/06/20 05:56:39;;;;;;;3.75;0.90;;;13.20;99.90;;;;;;4971641;28;20043;-80
2022/06/20 05:59:07;;;;;;;5.78;1.50;;;13.20;99.90;;;;;;4975359;28;20018;-80
2022/06/20 06:01:38;;;;;;;6.28;1.20;;;13.30;99.90;;;;;;4982081;28;20083;-79
2022/06/20 06:04:21;;;;;;;2.90;1.30;;;13.20;99.90;;;;;;4975396;28;20029;-79
2022/06/20 06:07:12;;;;;;;3.80;1.15;;;13.30;99.90;;;;;;4975688;28;20022;-80
2022/06/20 06:09:58;;;;;;;4.13;1.20;;;13.50;99.90;;;;;;4966678;28;20510;-80
2022/06/20 06:12:31;;;;;;;3.47;0.85;;;13.60;99.90;;;;;;4975537;28;20023;-80
2022/06/20 06:15:31;;;;;;;3.60;1.50;;;13.70;99.90;;;;;;4975269;28;20061;-79
2022/06/20 06:18:02;;;;;;;4.03;1.20;;;13.80;99.90;;;;;;4981803;28;20015;-79
2022/06/20 06:20:31;;;;;;;5.57;1.25;;;13.80;99.90;;;;;;4975512;28;20027;-80
2022/06/20 06:23:07;;;;;;;2.17;0.98;;;14.00;99.90;;;;;;4975283;28;20027;-80
2022/06/20 06:25:40;;;;;;;4.45;1.50;;;14.20;99.90;;;;;;4975227;28;20124;-80
2022/06/20 06:28:14;;;;;;;1.63;1.33;;;14.40;99.90;;;;;;4974919;28;20044;-80
2022/06/20 06:30:55;;;;;;;0.98;0.88;;;14.80;99.90;;;;;;4981540;28;20019;-80
2022/06/20 06:33:33;;;;;;;2.83;1.02;;;15.10;99.90;;;;;;4974963;28;20038;-81
2022/06/20 06:36:17;;;;;;;1.30;0.82;;;15.30;99.90;;;;;;4974603;28;20090;-81
2022/06/20 06:38:45;;;;;;;3.13;0.95;;;15.10;99.90;;;;;;4974549;28;20105;-80
2022/06/20 06:41:41;;;;;;;2.05;0.93;;;14.90;99.90;;;;;;4957095;28;20042;-80
2022/06/20 06:44:38;;;;;;;4.32;0.98;;;14.70;99.90;;;;;;4974291;28;20024;-80
2022/06/20 06:49:54;;;;;;;1.80;0.60;;;14.70;99.90;;;;;;5003139;28;20041;-77
2022/06/20 06:52:42;;;;;;;4.60;0.90;;;14.50;99.90;;;;;;5012926;28;20046;-78
2022/06/20 06:55:29;;;;;;;1.85;0.60;;;14.50;99.90;;;;;;5012568;28;20029;-78
2022/06/20 06:58:23;;;;;;;0.75;0.70;;;14.60;99.90;;;;;;4991711;28;20423;-78
2022/06/20 07:01:07;;;;;;;1.17;0.57;;;14.60;99.90;;;;;;4992993;28;20080;-78
2022/06/20 07:03:48;;;;;;;3.50;0.70;;;14.50;99.90;;;;;;4986463;28;20022;-78
2022/06/20 07:06:29;;;;;;;2.08;0.75;;;14.60;99.90;;;;;;4992494;28;20026;-81
2022/06/20 07:09:02;;;;;;;1.27;0.70;;;14.60;99.90;;;;;;4992595;28;20455;-78
2022/06/20 07:11:31;;;;;;;1.42;0.63;;;14.70;99.90;;;;;;4988451;28;20479;-80
2022/06/20 07:14:15;;;;;;;1.52;0.57;;;14.90;99.90;;;;;;4992684;28;20499;-78
2022/06/20 07:17:08;;;;;;;1.20;0.80;;;15.00;99.90;;;;;;4992415;28;20759;-78
2022/06/20 07:19:41;;;;;;;1.73;0.70;;;15.20;99.90;;;;;;4992052;28;20120;-82
2022/06/20 07:22:09;;;;;;;1.90;0.52;;;15.30;99.90;;;;;;4991358;28;20360;-79
2022/06/20 07:24:35;;;;;;;2.50;0.70;;;15.30;99.90;;;;;;4992669;28;20022;-80
2022/06/20 07:27:22;;;;;;;4.13;0.60;;;15.30;99.90;;;;;;5007046;28;20526;-80
2022/06/20 07:30:14;;;;;;;2.08;0.85;;;15.40;99.90;;;;;;4985864;28;20022;-79
2022/06/20 07:32:49;;;;;;;1.65;0.80;;;15.50;99.40;;;;;;4987621;28;20037;-82
2022/06/20 07:35:27;;;;;;;2.15;0.70;;;15.60;99.90;;;;;;4992420;28;20121;-81
2022/06/20 07:37:59;;;;;;;1.05;0.40;;;15.60;99.90;;;;;;4992205;28;20026;-80
2022/06/20 07:40:32;;;;;;;2.53;1.20;;;15.70;99.90;;;;;;4992092;28;20011;-80
2022/06/20 07:43:10;;;;;;;3.35;0.65;;;15.70;96.70;;;;;;4992058;28;20023;-80
2022/06/20 07:45:42;;;;;;;1.02;0.57;;;15.70;96.30;;;;;;4991917;28;20396;-80
2022/06/20 07:48:33;;;;;;;2.15;0.75;;;15.70;93.00;;;;;;5009868;22;20065;-84
2022/06/20 07:51:27;;;;;;;1.73;0.63;;;15.60;94.80;;;;;;4991932;28;20049;-83
2022/06/20 07:54:01;;;;;;;6.20;0.60;;;15.70;98.90;;;;;;4990104;28;20030;-82
2022/06/20 07:56:31;;;;;;;1.30;0.82;;;15.70;97.10;;;;;;4982227;28;20031;-84
2022/06/20 07:59:27;;;;;;;2.58;0.60;;;15.80;95.20;;;;;;4992935;28;20015;-83
2022/06/20 08:02:19;;;;;;;1.90;0.40;;;15.90;93.40;;;;;;5005170;28;20029;-84
2022/06/20 08:04:46;;;;;;;;;;;15.90;91.20;;;;;;4989890;28;20386;-85
2022/06/20 08:07:22;;;;;;;0.50;0.45;;;16.00;92.40;;;;;;4993054;28;20340;-85
2022/06/20 08:10:04;;;;;;;1.30;0.60;;;16.10;92.40;;;;;;4975559;28;20474;-86
2022/06/20 08:12:38;;;;;;;0.52;0.50;;;16.20;92.70;;;;;;4983650;28;20070;-85
2022/06/20 08:15:07;;;;;;;1.65;0.45;;;16.30;91.50;;;;;;4988723;28;20129;-84
2022/06/20 08:17:33;;;;;;;1.20;0.85;;;16.40;90.50;;;;;;4986012;28;20019;-84
2022/06/20 08:20:00;;;;;;;2.90;0.68;;;16.50;92.80;;;;;;4987318;28;20026;-85
2022/06/20 08:22:33;;;;;;;1.38;0.65;;;16.60;97.20;;;;;;4999934;28;20011;-86
2022/06/20 08:25:36;;;;;;;0.63;0.60;;;16.70;94.10;;;;;;4992759;28;20019;-85
2022/06/20 08:28:10;;;;;;;1.05;0.40;;;16.80;86.80;;;;;;4998650;28;20109;-85
2022/06/20 08:30:50;;;;;;;1.60;0.57;;;16.90;87.70;;;;;;4992970;28;20026;-83
2022/06/20 08:33:39;;;;;;;2.15;0.70;;;17.10;89.10;;;;;;4992737;28;20018;-86
2022/06/20 08:36:28;;;;;;;1.35;0.60;;;17.10;84.20;;;;;;4999193;28;20106;-85
2022/06/20 08:39:00;;;;;;;0.70;0.70;;;17.60;85.20;;;;;;4990832;28;20014;-84
2022/06/20 08:41:51;;;;;;;0.90;0.65;;;18.10;84.50;;;;;;5003784;28;20022;-86
2022/06/20 08:44:35;;;;;;;2.42;0.60;;;19.00;73.70;;;;;;4997089;28;20022;-85
2022/06/20 08:50:15;;;;;;;2.35;0.50;;;20.90;64.20;;;;;;5047730;28;20060;-79
2022/06/20 08:53:03;;;;;;;1.77;0.50;;;21.80;63.10;;;;;;5033111;28;20070;-79
2022/06/20 08:55:38;;;;;;;2.13;0.40;;;22.40;57.90;;;;;;5043232;28;20032;-79
2022/06/20 08:58:22;;;;;;;1.48;0.60;;;22.40;58.30;;;;;;5024824;28;20031;-80
2022/06/20 09:01:14;;;;;;;2.08;0.40;;;22.60;60.80;;;;;;5024772;28;20103;-80
2022/06/20 09:04:06;;;;;;;2.13;0.40;;;23.70;52.90;;;;;;5025961;28;20079;-81
2022/06/20 09:06:51;;;;;;;2.53;0.50;;;24.10;54.00;;;;;;5027102;28;20029;-80
2022/06/20 09:09:52;;;;;;;2.28;0.40;;;24.00;51.20;;;;;;5030490;28;20585;-80
2022/06/20 09:12:50;;;;;;;0.90;0.40;;;24.20;49.70;;;;;;4931103;29;20098;-80
2022/06/20 09:16:10;;;;;;;2.67;0.40;;;24.20;49.30;;;;;;5023894;28;20490;-81
2022/06/20 09:19:24;;;;;;;2.13;0.50;;;25.10;50.80;;;;;;4943962;28;20035;-81
2022/06/20 09:22:02;;;;;;;1.33;0.38;;;25.70;46.00;;;;;;5022942;28;20100;-80
2022/06/20 09:24:55;;;;;;;1.95;0.60;;;24.40;47.20;;;;;;5029246;28;20431;-80
2022/06/20 09:27:51;;;;;;;2.83;0.45;;;24.50;47.30;;;;;;4984269;28;20021;-79
2022/06/20 09:30:30;;;;;;;3.47;0.70;;;24.40;49.00;;;;;;5030458;28;20030;-80
2022/06/20 09:33:23;;;;;;;2.33;0.40;;;25.60;48.40;;;;;;5033934;28;20029;-81
2022/06/20 09:36:03;;;;;;;1.95;0.68;;;25.60;48.10;;;;;;5033881;28;20600;-79
2022/06/20 09:38:41;;;;;;;1.45;0.50;;;26.10;43.60;;;;;;5034340;28;20056;-80
2022/06/20 09:41:14;;;;;;;1.75;0.60;;;26.00;44.80;;;;;;5033854;28;20026;-80
2022/06/20 09:44:04;;;;;;;1.80;0.68;;;26.10;45.90;;;;;;5033876;28;20093;-80
2022/06/20 09:46:41;;;;;;;1.58;0.40;;;26.70;43.90;;;;;;5030007;28;20079;-79
2022/06/20 09:49:24;;;;;;;1.65;0.43;;;27.10;41.90;;;;;;5026960;22;20046;-85
2022/06/20 09:52:10;;;;;;;1.42;0.25;;;28.40;41.00;;;;;;4990452;28;20122;-84
2022/06/20 09:55:02;;;;;;;1.75;0.30;;;28.70;41.00;;;;;;4990303;28;20110;-84
2022/06/20 09:58:05;;;;;;;2.67;0.50;;;29.30;39.30;;;;;;4994378;28;20482;-84
2022/06/20 10:01:03;;;;;;;1.58;0.52;;;29.30;38.80;;;;;;4993955;28;20553;-86
2022/06/20 10:04:08;;;;;;;2.67;0.32;;;29.40;38.20;;;;;;4988302;28;20561;-84
2022/06/20 10:06:47;;;;;;;1.40;0.40;;;28.80;39.80;;;;;;4990927;28;20612;-83
2022/06/20 10:09:38;;;;;;;1.13;0.40;;;28.70;42.30;;;;;;4993677;28;20399;-83
2022/06/20 10:12:11;;;;;;;1.37;0.40;;;28.90;40.60;;;;;;5009363;28;20022;-82
2022/06/20 10:14:55;;;;;;;2.67;0.40;;;27.80;40.00;;;;;;4993493;28;20558;-84
2022/06/20 10:17:44;;;;;;;0.82;0.32;;;27.90;39.30;;;;;;4993639;28;20069;-83
2022/06/20 10:20:21;;;;;;;2.83;0.80;;;27.40;41.50;;;;;;4993775;28;20054;-82
2022/06/20 10:22:52;;;;;;;2.75;0.60;;;28.00;40.10;;;;;;4993393;28;20053;-83
2022/06/20 10:25:17;;;;;;;0.80;0.40;;;27.70;42.50;;;;;;4993982;28;20073;-83
2022/06/20 10:27:57;;;;;;;2.28;0.75;;;28.80;41.00;;;;;;4993471;28;20023;-85
2022/06/20 10:30:47;;;;;;;1.10;0.50;;;29.30;39.30;;;;;;4993289;28;20073;-82
2022/06/20 10:33:30;;;;;;;2.60;0.50;;;30.10;40.90;;;;;;4993255;28;20045;-82
2022/06/20 10:36:23;;;;;;;0.73;0.30;;;29.70;39.30;;;;;;4993224;28;20053;-83
2022/06/20 10:39:30;;;;;;;3.08;0.50;;;29.80;38.20;;;;;;4982443;28;20030;-83
2022/06/20 10:42:05;;;;;;;1.58;0.70;;;28.90;40.20;;;;;;4956431;28;20409;-83
2022/06/20 10:45:06;;;;;;;2.40;0.47;;;29.00;37.60;;;;;;4993162;28;20027;-83
2022/06/20 10:47:56;;;;;;;1.27;0.30;;;29.00;39.30;;;;;;5034008;23;20057;-78
2022/06/20 10:50:21;;;;;;;3.15;0.40;;;30.50;40.60;;;;;;4973361;28;20110;-79
2022/06/20 10:53:12;;;;;;;1.92;0.50;;;30.70;39.50;;;;;;4974646;28;20447;-79
2022/06/20 10:56:27;;;;;;;2.28;0.50;;;30.00;37.00;;;;;;4974718;28;20365;-78
2022/06/20 10:59:20;;;;;;;0.90;0.50;;;30.20;37.30;;;;;;4896259;29;20467;-79
2022/06/20 11:02:06;;;;;;;2.55;0.25;;;31.20;36.10;;;;;;4891605;29;20048;-79
2022/06/20 11:04:38;;;;;;;1.63;1.08;;;32.10;37.10;;;;;;4960142;28;20034;-81
2022/06/20 11:07:06;;;;;;;;;;;32.70;37.10;;;;;;4974890;28;20035;-79
2022/06/20 11:10:03;;;;;;;1.83;0.60;;;31.70;34.60;;;;;;4974404;28;19907;-79
2022/06/20 11:12:47;;;;;;;1.08;0.50;;;31.60;37.70;;;;;;4968175;28;20017;-78
2022/06/20 11:15:35;;;;;;;2.90;0.40;;;32.00;34.70;;;;;;4968404;28;20501;-79
2022/06/20 11:18:29;;;;;;;2.58;0.55;;;31.70;37.20;;;;;;4968649;28;20514;-78
2022/06/20 11:21:13;;;;;;;0.77;0.25;;;31.80;34.70;;;;;;4973823;28;20042;-80
2022/06/20 11:23:46;;;;;;;1.48;0.43;;;31.80;36.30;;;;;;4974020;28;20023;-79
2022/06/20 11:26:30;;;;;;;2.10;0.40;;;31.50;37.80;;;;;;4973755;28;20476;-79
2022/06/20 11:28:59;;;;;;;1.27;0.47;;;32.70;34.70;;;;;;4968709;28;20096;-78
2022/06/20 11:31:39;;;;;;;2.15;0.55;;;34.10;33.30;;;;;;4974084;28;20023;-78
2022/06/20 11:34:37;;;;;;;1.20;0.57;;;32.30;34.10;;;;;;4956542;28;20051;-79
2022/06/20 11:37:10;;;;;;;2.28;0.40;;;32.40;33.30;;;;;;4968377;28;20102;-79
2022/06/20 11:39:57;;;;;;;1.15;0.50;;;32.10;36.70;;;;;;4980696;28;20030;-79
2022/06/20 11:42:26;;;;;;;1.95;0.40;;;32.50;34.10;;;;;;4967420;28;20383;-78
2022/06/20 11:45:25;;;;;;;2.00;0.43;;;33.50;34.00;;;;;;4973909;28;20019;-79
2022/06/20 11:47:50;;;;;;;2.38;0.63;;;34.20;32.20;;;;;;4987474;22;20046;-84
2022/06/20 11:50:46;;;;;;;1.55;0.50;;;34.00;31.40;;;;;;4964019;28;20053;-84
2022/06/20 11:53:40;;;;;;;1.08;0.50;;;34.80;32.90;;;;;;4972062;28;20378;-84
2022/06/20 11:56:22;;;;;;;3.22;0.50;;;31.50;32.20;;;;;;4967216;28;20065;-86
2022/06/20 11:59:06;;;;;;;1.75;0.30;;;33.10;32.80;;;;;;4950123;28;20043;-85
2022/06/20 12:01:44;;;;;;;0.57;0.40;;;32.70;31.40;;;;;;4973035;28;20058;-83
2022/06/20 12:04:53;;;;;;;1.00;0.60;;;31.50;32.30;;;;;;4973625;28;20018;-85
2022/06/20 12:07:31;;;;;;;0.75;0.43;;;31.30;34.30;;;;;;4977208;28;20081;-84
2022/06/20 12:10:24;;;;;;;3.15;0.50;;;33.40;34.30;;;;;;4973926;28;20522;-85
2022/06/20 12:13:08;;;;;;;1.42;0.40;;;33.10;30.60;;;;;;4935804;28;20050;-85
2022/06/20 12:15:48;;;;;;;1.10;0.52;;;35.00;33.20;;;;;;4980258;28;20107;-85
2022/06/20 12:18:19;;;;;;;3.05;0.70;;;34.90;32.40;;;;;;4980000;28;20105;-84
2022/06/20 12:23:58;;;;;;;2.70;0.50;;;35.60;31.10;;;;;;4978736;28;20065;-83
2022/06/20 12:26:35;;;;;;;0.85;0.60;;;37.00;29.70;;;;;;4969473;28;20134;-85
2022/06/20 12:29:25;;;;;;;1.90;0.47;;;37.30;28.30;;;;;;4973828;28;20095;-83
2022/06/20 12:31:58;;;;;;;2.70;0.60;;;36.00;27.60;;;;;;4969876;28;20055;-84
2022/06/20 12:34:47;;;;;;;3.60;0.70;;;35.10;29.20;;;;;;4978852;28;20022;-84
2022/06/20 12:37:40;;;;;;;1.65;0.60;;;34.80;29.20;;;;;;4982476;28;20037;-84
2022/06/20 12:40:11;;;;;;;0.80;0.20;;;34.60;29.50;;;;;;4969375;28;20026;-84
2022/06/20 12:42:46;;;;;;;2.78;0.65;;;34.70;29.40;;;;;;4973326;28;20384;-82
2022/06/20 12:45:42;;;;;;;1.90;0.47;;;35.60;29.80;;;;;;4967202;28;20026;-84
2022/06/20 12:48:29;;;;;;;1.73;0.60;;;36.10;29.80;;;;;;4991778;23;20056;-81
2022/06/20 12:51:04;;;;;;;2.95;0.50;;;36.30;29.10;;;;;;4973009;28;20057;-81
2022/06/20 12:53:38;;;;;;;1.10;0.57;;;36.90;28.90;;;;;;4973041;28;20025;-81
2022/06/20 12:56:24;;;;;;;2.72;0.75;;;36.40;29.40;;;;;;4978771;28;20048;-81
2022/06/20 12:59:09;;;;;;;1.35;0.43;;;35.70;29.10;;;;;;4978396;28;20105;-82
2022/06/20 13:01:49;;;;;;;3.70;0.82;;;36.70;29.90;;;;;;4967272;28;20027;-81
2022/06/20 13:04:34;;;;;;;1.08;0.40;;;36.80;29.30;;;;;;4966206;28;20380;-82
2022/06/20 13:07:11;;;;;;;1.30;0.75;;;36.70;27.80;;;;;;4968301;28;20395;-83
2022/06/20 13:10:06;;;;;;;0.90;0.50;;;36.50;27.40;;;;;;4969759;28;20416;-82
2022/06/20 13:12:48;;;;;;;1.10;0.40;;;37.50;28.10;;;;;;4970326;28;20015;-82
2022/06/20 13:15:39;;;;;;;3.30;0.60;;;37.50;28.40;;;;;;4970864;28;20121;-82
2022/06/20 13:18:10;;;;;;;;;;;38.60;29.70;;;;;;4972358;28;20023;-82
2022/06/20 13:20:39;;;;;;;;;;;38.80;28.00;;;;;;4970936;28;19906;-82
2022/06/20 13:23:51;;;;;;;1.75;0.57;;;38.80;28.90;;;;;;4958919;28;19917;-81
2022/06/20 13:26:41;;;;;;;2.63;0.75;;;40.00;29.40;;;;;;4934665;29;20136;-80
2022/06/20 13:29:29;;;;;;;2.05;0.68;;;39.90;26.80;;;;;;4934740;29;20195;-81
2022/06/20 13:32:19;;;;;;;1.45;0.52;;;38.00;27.10;;;;;;4976064;28;20031;-81
2022/06/20 13:34:59;;;;;;;1.88;0.60;;;37.80;28.10;;;;;;4958750;28;20467;-81
2022/06/20 13:37:34;;;;;;;1.42;0.47;;;37.40;26.90;;;;;;4976226;28;20531;-81
2022/06/20 13:40:12;;;;;;;1.30;0.63;;;37.00;27.30;;;;;;4975063;28;20035;-82
2022/06/20 13:42:47;;;;;;;1.73;0.40;;;36.20;27.90;;;;;;4956032;28;20024;-81
2022/06/20 13:45:23;;;;;;;1.83;0.50;;;36.30;27.60;;;;;;4976054;28;20034;-81
2022/06/20 13:48:08;;;;;;;1.13;0.43;;;35.80;27.30;;;;;;4988798;22;20038;-83
2022/06/20 13:50:39;;;;;;;1.40;0.70;;;36.90;27.50;;;;;;4970227;28;20383;-84
2022/06/20 13:53:13;;;;;;;3.05;0.60;;;35.70;27.70;;;;;;4962910;28;20025;-84
2022/06/20 13:56:06;;;;;;;1.80;0.80;;;36.70;27.50;;;;;;4978006;28;20041;-85
2022/06/20 13:58:38;;;;;;;3.20;0.80;;;37.30;26.30;;;;;;4981718;28;20102;-84
2022/06/20 14:01:09;;;;;;;3.60;0.60;;;37.40;27.00;;;;;;4976465;28;20038;-86
2022/06/20 14:03:38;;;;;;;;;;;37.70;26.90;;;;;;4976499;28;20027;-84
2022/06/20 14:06:16;;;;;;;2.33;0.70;;;37.60;28.10;;;;;;4982664;28;19914;-83